createdAt,value
2022-10-29T00:02:01.948Z,7.07
2022-10-29T00:04:28.624Z,6.85
2022-10-29T00:06:55.188Z,6.80
2022-10-29T00:09:21.709Z,6.28
2022-10-29T00:11:48.243Z,6.82
2022-10-29T00:14:16.349Z,6.70
2022-10-29T00:16:42.836Z,6.47
2022-10-29T00:19:09.676Z,6.82
2022-10-29T00:21:38.064Z,7.10
2022-10-29T00:24:05.128Z,6.35
2022-10-29T00:26:31.688Z,6.88
2022-10-29T00:28:58.269Z,6.50
2022-10-29T00:31:25.256Z,5.88
2022-10-29T00:33:55.322Z,6.30
2022-10-29T00:36:26.852Z,6.80
2022-10-29T00:38:53.603Z,6.00
2022-10-29T00:41:25.548Z,6.72
2022-10-29T00:44:22.763Z,6.97
2022-10-29T00:47:11.560Z,6.95
2022-10-29T00:49:42.078Z,6.90
2022-10-29T00:52:10.046Z,7.10
2022-10-29T00:54:41.158Z,6.07
2022-10-29T00:57:12.572Z,6.78
2022-10-29T00:59:40.667Z,6.75
2022-10-29T01:02:07.388Z,7.18
2022-10-29T01:04:35.220Z,6.65
2022-10-29T01:07:02.219Z,7.03
2022-10-29T01:09:28.864Z,5.82
2022-10-29T01:12:29.565Z,6.68
2022-10-29T01:15:05.780Z,7.00
2022-10-29T01:17:53.657Z,6.45
2022-10-29T01:20:29.738Z,6.28
2022-10-29T01:23:36.514Z,6.70
2022-10-29T01:26:12.234Z,6.07
2022-10-29T01:28:58.716Z,7.05
2022-10-29T01:31:35.842Z,6.55
2022-10-29T01:34:25.735Z,6.43
2022-10-29T01:37:47.852Z,6.63
2022-10-29T01:40:26.621Z,5.97
2022-10-29T01:43:11.582Z,6.38
2022-10-29T01:45:54.481Z,6.32
2022-10-29T01:48:33.026Z,6.78
2022-10-29T01:51:05.114Z,8.02
2022-10-29T01:53:36.218Z,6.75
2022-10-29T01:56:02.772Z,6.60
2022-10-29T01:58:29.586Z,6.75
2022-10-29T02:01:06.962Z,6.47
2022-10-29T02:03:36.567Z,6.93
2022-10-29T02:06:41.171Z,6.82
2022-10-29T02:09:10.697Z,6.93
2022-10-29T02:11:37.193Z,6.38
2022-10-29T02:14:15.705Z,6.90
2022-10-29T02:16:42.523Z,6.20
2022-10-29T02:19:09.064Z,7.90
2022-10-29T02:21:35.620Z,7.47
2022-10-29T02:24:02.170Z,7.20
2022-10-29T02:26:28.708Z,7.15
2022-10-29T02:28:55.423Z,6.72
2022-10-29T02:31:21.931Z,7.32
2022-10-29T02:33:48.411Z,8.20
2022-10-29T02:36:14.932Z,8.00
2022-10-29T02:38:41.440Z,7.85
2022-10-29T02:41:07.949Z,6.95
2022-10-29T02:43:34.495Z,7.18
2022-10-29T02:46:20.869Z,6.30
2022-10-29T02:48:48.230Z,6.97
2022-10-29T02:51:15.802Z,7.28
2022-10-29T02:53:42.632Z,6.90
2022-10-29T02:56:09.624Z,7.85
2022-10-29T02:58:36.361Z,8.25
2022-10-29T03:01:03.069Z,7.63
2022-10-29T03:03:30.051Z,9.23
2022-10-29T03:05:56.552Z,7.60
2022-10-29T03:08:23.148Z,7.82
2022-10-29T03:10:49.782Z,8.88
2022-10-29T03:13:16.358Z,7.85
2022-10-29T03:15:46.300Z,9.38
2022-10-29T03:18:12.896Z,8.50
2022-10-29T03:20:39.449Z,9.93
2022-10-29T03:23:06.147Z,9.35
2022-10-29T03:25:32.691Z,8.93
2022-10-29T03:27:59.349Z,9.88
2022-10-29T03:30:26.017Z,10.45
2022-10-29T03:32:52.625Z,9.85
2022-10-29T03:35:19.230Z,9.82
2022-10-29T03:37:49.405Z,10.20
2022-10-29T03:40:15.985Z,10.55
2022-10-29T03:42:42.655Z,10.05
2022-10-29T03:45:10.364Z,10.75
2022-10-29T03:47:37.143Z,10.80
2022-10-29T03:50:04.338Z,11.52
2022-10-29T03:52:31.152Z,10.68
2022-10-29T03:54:57.657Z,10.98
2022-10-29T03:57:24.209Z,10.85
2022-10-29T03:59:52.666Z,10.52
2022-10-29T04:02:19.742Z,11.02
2022-10-29T04:04:46.514Z,11.60
2022-10-29T04:07:13.111Z,11.55
2022-10-29T04:09:39.787Z,10.95
2022-10-29T04:12:06.893Z,11.25
2022-10-29T04:14:33.540Z,11.40
2022-10-29T04:17:00.163Z,11.95
2022-10-29T04:19:26.966Z,11.75
2022-10-29T04:30:14.932Z,11.85
2022-10-29T04:32:41.418Z,10.90
2022-10-29T04:35:08.121Z,11.90
2022-10-29T04:37:34.654Z,12.38
2022-10-29T04:40:01.601Z,12.02
2022-10-29T04:42:28.113Z,11.93
2022-10-29T04:44:54.632Z,13.02
2022-10-29T04:47:21.132Z,11.65
2022-10-29T04:49:47.660Z,12.27
2022-10-29T04:52:14.167Z,12.30
2022-10-29T04:54:40.672Z,12.73
2022-10-29T04:57:07.182Z,11.40
2022-10-29T04:59:33.757Z,13.95
2022-10-29T05:02:00.261Z,9.43
2022-10-29T05:04:29.479Z,9.02
2022-10-29T05:06:56.092Z,8.45
2022-10-29T05:09:22.652Z,8.98
2022-10-29T05:11:49.145Z,10.13
2022-10-29T05:14:15.666Z,10.32
2022-10-29T05:16:42.212Z,9.80
2022-10-29T05:19:08.811Z,11.50
2022-10-29T05:21:35.317Z,10.20
2022-10-29T05:24:01.918Z,10.13
2022-10-29T05:26:32.181Z,11.23
2022-10-29T05:28:58.778Z,11.52
2022-10-29T05:31:25.417Z,11.65
2022-10-29T05:33:55.488Z,10.73
2022-10-29T05:36:22.867Z,10.25
2022-10-29T05:38:49.361Z,10.52
2022-10-29T05:41:15.883Z,8.93
2022-10-29T05:43:42.423Z,10.30
2022-10-29T05:46:08.950Z,10.38
2022-10-29T05:48:35.753Z,10.93
2022-10-29T05:51:02.446Z,10.13
2022-10-29T05:53:29.020Z,10.63
2022-10-29T05:55:55.553Z,11.23
2022-10-29T05:58:22.110Z,10.32
2022-10-29T06:00:48.630Z,9.60
2022-10-29T06:03:16.710Z,11.50
2022-10-29T06:05:43.575Z,11.30
2022-10-29T06:08:10.569Z,11.88
2022-10-29T06:10:37.135Z,11.00
2022-10-29T06:13:13.133Z,10.80
2022-10-29T06:15:39.747Z,9.88
2022-10-29T06:18:06.593Z,10.18
2022-10-29T06:20:33.161Z,10.93
2022-10-29T06:22:59.928Z,9.45
2022-10-29T06:25:27.335Z,10.07
2022-10-29T06:28:03.287Z,10.48
2022-10-29T06:30:31.592Z,10.70
2022-10-29T06:32:58.541Z,10.45
2022-10-29T06:35:25.404Z,9.98
2022-10-29T06:37:52.088Z,10.32
2022-10-29T06:40:18.716Z,9.65
2022-10-29T06:42:45.458Z,9.98
2022-10-29T06:45:12.513Z,9.10
2022-10-29T06:47:43.626Z,11.05
2022-10-29T06:50:11.966Z,9.02
2022-10-29T06:52:39.055Z,8.90
2022-10-29T06:55:06.536Z,8.77
2022-10-29T06:57:33.167Z,9.82
2022-10-29T07:00:03.844Z,8.55
2022-10-29T07:02:34.153Z,10.98
2022-10-29T07:05:00.669Z,9.95
2022-10-29T07:07:28.651Z,10.27
2022-10-29T07:09:55.253Z,9.57
2022-10-29T07:12:21.772Z,11.00
2022-10-29T07:14:48.390Z,9.07
2022-10-29T07:17:14.948Z,10.20
2022-10-29T07:19:41.449Z,9.95
2022-10-29T07:22:07.976Z,10.07
2022-10-29T07:24:34.480Z,9.55
2022-10-29T07:27:01.948Z,9.63
2022-10-29T07:29:28.474Z,10.20
2022-10-29T07:31:55.034Z,11.07
2022-10-29T07:34:21.567Z,10.90
2022-10-29T07:36:48.079Z,10.60
2022-10-29T07:39:14.599Z,10.20
2022-10-29T07:41:41.122Z,10.43
2022-10-29T07:44:07.646Z,10.95
2022-10-29T07:46:34.182Z,11.20
2022-10-29T07:49:00.829Z,11.07
2022-10-29T07:51:27.385Z,10.07
2022-10-29T07:53:53.873Z,10.18
2022-10-29T07:56:20.651Z,9.05
2022-10-29T07:58:47.150Z,9.65
2022-10-29T08:01:13.798Z,11.32
2022-10-29T08:03:40.407Z,9.55
2022-10-29T08:06:07.059Z,9.25
2022-10-29T08:08:34.924Z,10.00
2022-10-29T08:11:03.218Z,10.00
2022-10-29T08:13:30.069Z,10.48
2022-10-29T08:15:57.185Z,10.73
2022-10-29T08:18:23.695Z,10.70
2022-10-29T08:20:50.252Z,9.55
2022-10-29T08:23:16.832Z,10.13
2022-10-29T08:25:44.480Z,10.52
2022-10-29T08:28:13.547Z,9.50
2022-10-29T08:30:41.242Z,9.40
2022-10-29T08:33:09.620Z,9.05
2022-10-29T08:35:36.401Z,8.73
2022-10-29T08:38:02.994Z,9.23
2022-10-29T08:40:32.314Z,8.48
2022-10-29T08:43:17.429Z,8.98
2022-10-29T08:45:49.627Z,9.65
2022-10-29T08:48:25.500Z,9.82
2022-10-29T08:51:08.678Z,8.48
2022-10-29T08:53:45.538Z,10.20
2022-10-29T08:56:21.796Z,9.48
2022-10-29T08:59:06.332Z,9.38
2022-10-29T09:01:33.134Z,9.68
2022-10-29T09:03:59.677Z,9.63
2022-10-29T09:06:41.316Z,8.50
2022-10-29T09:09:31.273Z,8.35
2022-10-29T09:12:02.579Z,8.25
2022-10-29T09:14:44.033Z,8.38
2022-10-29T09:17:39.743Z,8.30
2022-10-29T09:20:23.212Z,8.07
2022-10-29T09:22:52.383Z,7.80
2022-10-29T09:25:42.051Z,8.35
2022-10-29T09:28:42.941Z,8.25
2022-10-29T09:31:27.732Z,8.52
2022-10-29T09:34:00.875Z,8.52
2022-10-29T09:36:30.945Z,7.68
2022-10-29T09:39:02.712Z,7.75
2022-10-29T09:41:34.345Z,7.88
2022-10-29T09:44:15.183Z,8.35
2022-10-29T09:46:41.760Z,8.25
2022-10-29T09:49:44.814Z,7.97
2022-10-29T09:52:21.055Z,7.75
2022-10-29T09:54:51.465Z,7.20
2022-10-29T09:57:22.409Z,8.10
2022-10-29T09:59:55.471Z,8.00
2022-10-29T10:02:28.331Z,7.57
2022-10-29T10:05:00.290Z,7.50
2022-10-29T10:07:27.489Z,7.72
2022-10-29T10:10:02.086Z,7.25
2022-10-29T10:12:37.646Z,7.22
2022-10-29T10:15:16.284Z,7.45
2022-10-29T10:17:59.931Z,7.47
2022-10-29T10:20:37.840Z,7.47
2022-10-29T10:23:30.396Z,7.13
2022-10-29T10:26:02.239Z,7.07
2022-10-29T10:28:35.929Z,7.32
2022-10-29T10:31:12.743Z,7.22
2022-10-29T10:33:53.865Z,7.35
2022-10-29T10:36:30.502Z,7.10
2022-10-29T10:39:00.419Z,6.47
2022-10-29T10:41:34.338Z,6.40
2022-10-29T10:44:03.987Z,6.30
2022-10-29T10:46:35.602Z,6.70
2022-10-29T10:49:17.193Z,6.57
2022-10-29T10:51:48.599Z,6.43
2022-10-29T10:54:37.113Z,6.38
2022-10-29T10:57:19.520Z,6.82
2022-10-29T11:00:01.384Z,6.78
2022-10-29T11:02:38.078Z,6.05
2022-10-29T11:05:29.510Z,5.97
2022-10-29T11:08:07.071Z,6.15
2022-10-29T11:10:40.389Z,5.82
2022-10-29T11:13:15.069Z,6.00
2022-10-29T11:15:50.689Z,5.22
2022-10-29T11:18:24.405Z,4.97
2022-10-29T11:20:59.502Z,5.10
2022-10-29T11:23:51.166Z,5.13
2022-10-29T11:26:20.253Z,5.57
2022-10-29T11:29:00.803Z,5.30
2022-10-29T11:31:57.369Z,5.05
2022-10-29T11:34:44.519Z,4.88
2022-10-29T11:37:31.833Z,5.78
2022-10-29T11:40:04.236Z,4.93
2022-10-29T11:42:30.937Z,5.38
2022-10-29T11:45:00.021Z,5.50
2022-10-29T11:47:32.643Z,6.03
2022-10-29T11:50:11.480Z,5.20
2022-10-29T11:53:01.302Z,5.72
2022-10-29T11:56:31.243Z,6.38
2022-10-29T11:59:07.188Z,5.93
2022-10-29T12:01:44.463Z,5.10
2022-10-29T12:04:29.226Z,5.47
2022-10-29T12:07:37.542Z,5.63
2022-10-29T12:10:29.014Z,6.40
2022-10-29T12:13:33.252Z,8.82
2022-10-29T12:16:14.989Z,6.70
2022-10-29T12:19:00.586Z,7.07
2022-10-29T12:21:39.046Z,5.88
2022-10-29T12:24:28.268Z,6.40
2022-10-29T12:27:16.324Z,5.72
2022-10-29T12:29:50.260Z,5.75
2022-10-29T12:32:26.855Z,5.43
2022-10-29T12:35:29.142Z,5.35
2022-10-29T12:40:38.382Z,5.45
2022-10-29T12:43:10.400Z,5.72
2022-10-29T12:46:18.656Z,6.03
2022-10-29T12:49:04.347Z,5.22
2022-10-29T12:51:53.939Z,5.13
2022-10-29T12:54:38.686Z,5.47
2022-10-29T12:57:14.006Z,4.97
2022-10-29T12:59:44.988Z,5.13
2022-10-29T13:02:28.131Z,5.87
2022-10-29T13:05:07.184Z,4.97
2022-10-29T13:07:34.709Z,5.55
2022-10-29T13:10:26.354Z,5.45
2022-10-29T13:13:01.723Z,5.57
2022-10-29T13:16:02.920Z,5.45
2022-10-29T13:19:11.320Z,5.10
2022-10-29T13:21:58.007Z,5.13
2022-10-29T13:24:25.825Z,5.65
2022-10-29T13:27:05.912Z,5.45
2022-10-29T13:29:47.815Z,5.47
2022-10-29T13:32:35.272Z,5.57
2022-10-29T13:35:04.140Z,5.25
2022-10-29T13:37:51.369Z,5.47
2022-10-29T13:40:33.332Z,6.07
2022-10-29T13:45:26.754Z,5.10
2022-10-29T13:48:00.824Z,6.60
2022-10-29T13:50:27.553Z,6.43
2022-10-29T13:52:58.277Z,6.72
2022-10-29T13:55:26.119Z,6.83
2022-10-29T13:58:36.642Z,6.40
2022-10-29T14:01:09.543Z,6.10
2022-10-29T14:03:53.010Z,5.60
2022-10-29T14:06:26.182Z,5.18
2022-10-29T14:09:15.462Z,6.53
2022-10-29T14:11:46.168Z,5.70
2022-10-29T14:14:50.284Z,5.97
2022-10-29T14:17:18.890Z,5.25
2022-10-29T14:19:48.040Z,5.25
2022-10-29T14:22:20.571Z,4.72
2022-10-29T14:24:47.123Z,6.05
2022-10-29T14:27:16.934Z,5.80
2022-10-29T14:29:43.499Z,6.38
2022-10-29T14:32:19.364Z,5.80
2022-10-29T14:34:51.906Z,6.18
2022-10-29T14:37:31.091Z,5.47
2022-10-29T14:40:02.455Z,6.40
2022-10-29T14:42:37.312Z,6.25
2022-10-29T14:45:25.655Z,5.53
2022-10-29T14:47:57.940Z,5.97
2022-10-29T14:50:27.279Z,5.38
2022-10-29T14:53:03.650Z,5.05
2022-10-29T14:55:40.101Z,5.25
2022-10-29T14:58:29.850Z,5.70
2022-10-29T15:01:07.758Z,5.93
2022-10-29T15:03:35.815Z,5.32
2022-10-29T15:06:17.088Z,5.88
2022-10-29T15:08:46.352Z,5.28
2022-10-29T15:11:31.303Z,6.00
2022-10-29T15:13:58.102Z,6.00
2022-10-29T15:16:24.737Z,6.07
2022-10-29T15:18:53.887Z,5.93
2022-10-29T15:21:32.005Z,5.60
2022-10-29T15:24:09.987Z,6.10
2022-10-29T15:26:45.535Z,7.18
2022-10-29T15:29:12.862Z,6.57
2022-10-29T15:31:49.662Z,5.85
2022-10-29T15:34:23.264Z,5.93
2022-10-29T15:36:57.913Z,6.10
2022-10-29T15:39:29.077Z,5.53
2022-10-29T15:41:59.595Z,5.88
2022-10-29T15:44:32.670Z,5.30
2022-10-29T15:47:01.168Z,6.05
2022-10-29T15:49:31.551Z,5.40
2022-10-29T15:54:27.878Z,5.63
2022-10-29T15:56:54.419Z,5.28
2022-10-29T15:59:24.857Z,4.80
2022-10-29T16:01:51.591Z,5.53
2022-10-29T16:04:18.324Z,5.90
2022-10-29T16:06:44.820Z,5.70
2022-10-29T16:09:18.158Z,5.18
2022-10-29T16:11:44.791Z,6.18
2022-10-29T16:14:11.356Z,6.25
2022-10-29T16:16:38.119Z,35.03
2022-10-29T16:19:04.718Z,28.75
2022-10-29T16:21:31.227Z,39.40
2022-10-29T16:23:57.745Z,12.63
2022-10-29T16:26:25.950Z,7.40
2022-10-29T16:28:53.328Z,6.55
2022-10-29T16:31:28.562Z,5.93
2022-10-29T16:33:58.982Z,5.57
2022-10-29T16:36:25.724Z,5.95
2022-10-29T16:38:52.257Z,6.35
2022-10-29T16:41:20.324Z,5.47
2022-10-29T16:43:47.681Z,5.80
2022-10-29T16:46:14.860Z,6.18
2022-10-29T16:48:41.838Z,6.22
2022-10-29T16:51:08.424Z,7.10
2022-10-29T16:53:35.000Z,7.20
2022-10-29T16:56:01.890Z,5.97
2022-10-29T16:58:28.440Z,6.20
2022-10-29T17:01:06.811Z,6.65
2022-10-29T17:03:34.375Z,6.45
2022-10-29T17:06:06.193Z,6.40
2022-10-29T17:08:34.081Z,6.22
2022-10-29T17:11:01.908Z,6.28
2022-10-29T17:13:28.541Z,6.30
2022-10-29T17:15:55.237Z,5.88
2022-10-29T17:18:23.149Z,7.00
2022-10-29T17:21:00.549Z,8.02
2022-10-29T17:23:27.945Z,7.63
2022-10-29T17:25:56.414Z,7.55
2022-10-29T17:28:24.803Z,7.13
2022-10-29T17:30:51.607Z,8.57
2022-10-29T17:33:19.051Z,9.68
2022-10-29T17:35:46.108Z,11.07
2022-10-29T17:38:12.670Z,9.75
2022-10-29T17:40:39.438Z,12.65
2022-10-29T17:43:06.157Z,13.00
2022-10-29T17:45:32.737Z,10.43
2022-10-29T17:47:59.753Z,8.75
2022-10-29T17:50:26.957Z,9.73
2022-10-29T17:52:54.558Z,11.65
2022-10-29T17:55:21.339Z,9.80
2022-10-29T17:57:47.919Z,9.63
2022-10-29T18:00:14.904Z,10.65
2022-10-29T18:02:41.664Z,10.25
2022-10-29T18:05:08.678Z,10.02
2022-10-29T18:07:35.200Z,9.48
2022-10-29T18:10:01.761Z,9.75
2022-10-29T18:12:28.358Z,9.18
2022-10-29T18:14:54.868Z,9.98
2022-10-29T18:17:21.368Z,8.52
2022-10-29T18:19:47.900Z,9.00
2022-10-29T18:22:14.415Z,8.60
2022-10-29T18:24:40.917Z,8.23
2022-10-29T18:27:07.464Z,9.32
2022-10-29T18:29:33.994Z,8.00
2022-10-29T18:32:00.794Z,8.65
2022-10-29T18:34:27.408Z,8.30
2022-10-29T18:36:53.926Z,8.38
2022-10-29T18:39:21.046Z,8.13
2022-10-29T18:41:47.597Z,8.23
2022-10-29T18:44:14.113Z,9.27
2022-10-29T18:46:40.705Z,9.70
2022-10-29T18:49:07.295Z,8.40
2022-10-29T18:51:33.837Z,8.70
2022-10-29T18:54:00.547Z,9.00
2022-10-29T18:56:28.473Z,9.35
2022-10-29T18:58:56.246Z,9.82
2022-10-29T19:01:26.068Z,9.48
2022-10-29T19:03:55.160Z,9.25
2022-10-29T19:06:24.288Z,9.25
2022-10-29T19:08:51.020Z,8.40
2022-10-29T19:11:21.306Z,9.25
2022-10-29T19:13:52.172Z,8.77
2022-10-29T19:16:19.434Z,9.63
2022-10-29T19:18:46.623Z,9.45
2022-10-29T19:21:16.445Z,10.10
2022-10-29T19:23:43.496Z,8.25
2022-10-29T19:26:12.441Z,8.00
2022-10-29T19:28:39.810Z,7.47
2022-10-29T19:31:18.652Z,7.55
2022-10-29T19:33:50.083Z,7.00
2022-10-29T19:36:18.171Z,7.68
2022-10-29T19:38:44.830Z,7.90
2022-10-29T19:41:12.413Z,6.00
2022-10-29T19:43:39.996Z,7.13
2022-10-29T19:46:08.733Z,6.78
2022-10-29T19:48:36.107Z,6.72
2022-10-29T19:51:02.709Z,7.03
2022-10-29T19:53:29.356Z,6.97
2022-10-29T19:55:56.042Z,6.90
2022-10-29T19:58:24.275Z,6.88
2022-10-29T20:00:51.088Z,7.72
2022-10-29T20:03:18.811Z,7.45
2022-10-29T20:05:46.553Z,6.47
2022-10-29T20:08:15.872Z,7.35
2022-10-29T20:10:43.131Z,8.45
2022-10-29T20:13:09.728Z,8.63
2022-10-29T20:15:38.991Z,8.95
2022-10-29T20:18:05.886Z,8.13
2022-10-29T20:20:32.485Z,8.63
2022-10-29T20:23:00.217Z,8.52
2022-10-29T20:25:27.382Z,8.35
2022-10-29T20:27:53.973Z,7.03
2022-10-29T20:30:20.632Z,7.53
2022-10-29T20:32:48.396Z,7.20
2022-10-29T20:35:15.243Z,9.00
2022-10-29T20:37:41.781Z,7.72
2022-10-29T20:40:08.950Z,7.95
2022-10-29T20:42:35.465Z,9.20
2022-10-29T20:45:02.001Z,8.20
2022-10-29T20:47:28.489Z,8.80
2022-10-29T20:49:55.015Z,9.25
2022-10-29T20:52:21.592Z,8.65
2022-10-29T20:54:48.112Z,8.82
2022-10-29T20:57:14.649Z,9.80
2022-10-29T20:59:42.039Z,8.50
2022-10-29T21:02:11.138Z,9.75
2022-10-29T21:04:39.106Z,9.10
2022-10-29T21:07:05.707Z,8.60
2022-10-29T21:09:32.209Z,9.30
2022-10-29T21:11:58.705Z,8.38
2022-10-29T21:14:27.469Z,9.20
2022-10-29T21:16:53.963Z,8.77
2022-10-29T21:19:20.574Z,8.68
2022-10-29T21:21:47.054Z,9.93
2022-10-29T21:24:13.562Z,9.38
2022-10-29T21:26:40.158Z,9.20
2022-10-29T21:29:06.723Z,8.90
2022-10-29T21:31:33.355Z,8.70
2022-10-29T21:33:59.953Z,9.32
2022-10-29T21:36:26.540Z,8.65
2022-10-29T21:38:53.082Z,9.80
2022-10-29T21:41:19.672Z,9.10
2022-10-29T21:43:46.188Z,8.85
2022-10-29T21:46:12.760Z,8.52
2022-10-29T21:48:39.328Z,9.00
2022-10-29T21:51:14.654Z,9.05
2022-10-29T21:53:41.364Z,8.73
2022-10-29T21:56:10.449Z,9.07
2022-10-29T21:58:36.978Z,8.57
2022-10-29T22:01:15.710Z,8.45
2022-10-29T22:03:43.898Z,9.05
2022-10-29T22:06:13.964Z,9.75
2022-10-29T22:08:41.377Z,8.77
2022-10-29T22:11:08.284Z,8.32
2022-10-29T22:13:35.656Z,8.60
2022-10-29T22:16:04.477Z,9.52
2022-10-29T22:18:31.421Z,9.07
2022-10-29T22:21:04.052Z,9.05
2022-10-29T22:23:30.565Z,9.32
2022-10-29T22:25:57.076Z,7.88
2022-10-29T22:28:23.749Z,8.90
2022-10-29T22:30:58.299Z,8.75
2022-10-29T22:33:24.802Z,8.73
2022-10-29T22:35:51.274Z,8.43
2022-10-29T22:38:18.381Z,9.63
2022-10-29T22:40:45.007Z,8.75
2022-10-29T22:43:12.111Z,9.70
2022-10-29T22:45:38.709Z,9.38
2022-10-29T22:48:05.692Z,9.00
2022-10-29T22:50:33.398Z,8.65
2022-10-29T22:53:00.260Z,10.13
2022-10-29T22:55:27.074Z,9.23
2022-10-29T22:57:53.718Z,8.98
2022-10-29T23:00:20.264Z,9.15
2022-10-29T23:02:46.844Z,8.98
2022-10-29T23:05:13.530Z,10.50
2022-10-29T23:07:40.060Z,9.15
2022-10-29T23:10:06.978Z,9.35
2022-10-29T23:12:33.480Z,9.40
2022-10-29T23:14:59.967Z,9.68
2022-10-29T23:17:26.460Z,9.35
2022-10-29T23:19:56.180Z,10.25
2022-10-29T23:22:24.828Z,10.13
2022-10-29T23:24:53.922Z,8.53
2022-10-29T23:27:20.429Z,9.05
2022-10-29T23:29:47.104Z,10.70
2022-10-29T23:32:13.684Z,11.13
2022-10-29T23:34:40.226Z,10.20
2022-10-29T23:37:09.771Z,9.13
2022-10-29T23:39:36.968Z,9.25
2022-10-29T23:42:03.793Z,9.15
2022-10-29T23:44:30.371Z,10.63
2022-10-29T23:46:56.872Z,9.85
2022-10-29T23:49:23.505Z,10.40
2022-10-29T23:51:50.054Z,10.98
2022-10-29T23:54:16.568Z,9.85
2022-10-29T23:56:43.148Z,11.20
2022-10-29T23:59:09.733Z,9.25
